Nobe, West Virginia
Current Conditions -  °F | °C
As of 5:53 PM on Wednesday 17 Dec 2014 (Local Time) from KPKB Reporting Station
Overcast Overcast  
Wind Chill: 23°   Ceiling: 2600
Heat Index: 32°   Visibility: 10mi
Dew Point: 23°   Wind: 12mph
Humidity: 69%   Direction: 290°WNW
Pressure: 30.19"   Gusts: NA
Location:  38.9756°N, 80.9915°W
Report Text: KPKB 172253Z 29010KT 10SM OVC026 00/M05 A3019 RMK AO2 SLP231 T00001050
Loading
Personal Weather Stations






























Interactive Weather Map New forecast layout! Learn more

10-Day Weather Forecast

Advertisements
Track Severe Weather on mobile